Time;durP1;ratioP1;P1;durP2;ratioP2;P2;SDS_P1;SDS_P2;PMS_P1;PMS_P2;Temp;Humidity;BMP_temperature;BMP_pressure;BME280_temperature;BME280_humidity;BME280_pressure;Samples;Min_cycle;Max_cycle;Signal;HPM_P1;HPM_P2
2024/03/05 00:02:17;;;;;;;25.50;14.73;;;5.40;99.90;;;;;;7284845;19;20260;-79
2024/03/05 00:04:43;;;;;;;28.20;14.67;;;5.50;99.90;;;;;;7284542;19;20218;-79
2024/03/05 00:07:09;;;;;;;28.33;14.60;;;5.70;99.90;;;;;;7285030;19;20585;-79
2024/03/05 00:09:36;;;;;;;28.10;15.50;;;5.70;99.90;;;;;;7283432;19;20222;-79
2024/03/05 00:12:02;;;;;;;30.00;15.20;;;5.70;99.90;;;;;;7305160;19;20308;-80
2024/03/05 00:14:29;;;;;;;25.73;14.80;;;5.70;99.90;;;;;;7283702;19;20200;-80
2024/03/05 00:16:56;;;;;;;24.50;15.20;;;5.80;99.90;;;;;;7286109;19;20196;-79
2024/03/05 00:19:24;;;;;;;28.53;15.13;;;5.80;99.90;;;;;;7284629;19;20197;-79
2024/03/05 00:21:50;;;;;;;25.33;15.00;;;5.80;99.90;;;;;;7283193;19;20272;-79
2024/03/05 00:24:16;;;;;;;26.33;14.80;;;5.80;99.90;;;;;;7283588;19;20648;-80
2024/03/05 00:26:42;;;;;;;26.33;15.97;;;5.80;99.90;;;;;;7284386;19;20189;-79
2024/03/05 00:29:08;;;;;;;27.17;15.13;;;5.70;99.90;;;;;;7283717;19;20198;-79
2024/03/05 00:31:34;;;;;;;26.57;15.13;;;5.60;99.90;;;;;;7300821;19;20579;-78
2024/03/05 00:34:03;;;;;;;27.70;15.93;;;5.50;99.90;;;;;;7304252;19;20659;-79
2024/03/05 00:36:28;;;;;;;26.13;15.37;;;5.60;99.90;;;;;;7282805;19;20189;-79
2024/03/05 00:38:54;;;;;;;26.03;14.37;;;5.60;99.90;;;;;;7284319;19;20608;-79
2024/03/05 00:41:21;;;;;;;25.33;15.07;;;5.70;99.90;;;;;;7281848;19;20676;-80
2024/03/05 00:43:47;;;;;;;27.03;16.37;;;5.70;99.90;;;;;;7283372;19;20663;-80
2024/03/05 00:46:13;;;;;;;33.03;16.70;;;5.70;99.90;;;;;;7283642;19;20213;-79
2024/03/05 00:48:39;;;;;;;29.30;16.13;;;5.40;99.90;;;;;;7281747;19;20242;-79
2024/03/05 00:51:08;;;;;;;26.97;16.07;;;5.30;99.90;;;;;;7283909;19;20198;-79
2024/03/05 00:53:34;;;;;;;28.17;15.77;;;5.20;99.90;;;;;;7296354;19;20188;-79
2024/03/05 00:56:00;;;;;;;28.00;16.13;;;5.10;99.90;;;;;;7302974;19;20189;-79
2024/03/05 00:58:26;;;;;;;26.10;14.93;;;5.00;99.90;;;;;;7282304;19;20189;-79
2024/03/05 01:00:54;;;;;;;25.23;15.67;;;5.00;99.90;;;;;;7282755;19;20187;-79
2024/03/05 01:03:20;;;;;;;25.83;14.57;;;4.90;99.90;;;;;;7284825;19;20200;-79
2024/03/05 01:05:47;;;;;;;29.83;15.43;;;4.90;99.90;;;;;;7281554;19;20189;-79
2024/03/05 01:08:12;;;;;;;27.03;15.67;;;4.80;99.90;;;;;;7282633;19;20216;-80
2024/03/05 01:10:39;;;;;;;26.43;14.90;;;4.80;99.90;;;;;;7277512;19;20184;-79
2024/03/05 01:13:04;;;;;;;27.53;15.00;;;4.90;99.90;;;;;;7285564;19;20292;-79
2024/03/05 01:15:30;;;;;;;25.30;14.90;;;4.90;99.90;;;;;;7298317;19;20295;-79
2024/03/05 01:17:57;;;;;;;26.80;15.20;;;4.90;99.90;;;;;;7279076;19;20324;-79
2024/03/05 01:20:22;;;;;;;28.43;14.63;;;4.80;99.90;;;;;;7283346;19;20255;-78
2024/03/05 01:22:48;;;;;;;28.10;14.40;;;4.80;99.90;;;;;;7279906;19;20264;-80
2024/03/05 01:25:16;;;;;;;23.70;14.10;;;4.90;99.90;;;;;;7282151;19;20192;-79
2024/03/05 01:27:42;;;;;;;27.07;15.10;;;5.10;99.90;;;;;;7283212;19;20185;-79
2024/03/05 01:30:13;;;;;;;27.23;14.17;;;5.20;99.90;;;;;;7280900;19;20644;-79
2024/03/05 01:32:40;;;;;;;25.03;14.50;;;5.40;99.90;;;;;;7282050;19;20283;-79
2024/03/05 01:35:10;;;;;;;27.23;14.87;;;5.50;99.90;;;;;;7281852;19;20277;-78
2024/03/05 01:37:39;;;;;;;23.97;13.80;;;5.70;99.90;;;;;;7282023;19;20189;-79
2024/03/05 01:40:06;;;;;;;25.30;13.63;;;5.70;99.90;;;;;;7294144;19;20185;-78
2024/03/05 01:42:32;;;;;;;26.17;15.60;;;5.80;99.90;;;;;;7304387;19;20715;-79
2024/03/05 01:44:58;;;;;;;22.30;14.03;;;5.90;99.90;;;;;;7282487;19;20652;-79
2024/03/05 01:47:26;;;;;;;27.20;14.77;;;6.00;99.90;;;;;;7282220;19;20198;-80
2024/03/05 01:49:52;;;;;;;24.90;14.07;;;6.00;99.90;;;;;;7282186;19;20202;-79
2024/03/05 01:52:18;;;;;;;25.57;14.63;;;6.10;99.90;;;;;;7283643;19;20769;-79
2024/03/05 01:54:44;;;;;;;25.87;14.43;;;6.20;99.90;;;;;;7280643;19;20788;-79
2024/03/05 01:57:10;;;;;;;22.73;13.40;;;6.30;99.90;;;;;;7283772;19;20191;-79
2024/03/05 01:59:41;;;;;;;23.33;14.07;;;6.30;99.90;;;;;;7289508;19;20189;-79
2024/03/05 02:02:07;;;;;;;24.50;14.07;;;6.40;99.90;;;;;;7288201;19;20348;-79
2024/03/05 02:04:36;;;;;;;27.40;14.17;;;6.50;99.90;;;;;;7310837;19;20203;-78
2024/03/05 02:07:06;;;;;;;23.30;13.80;;;6.50;99.90;;;;;;7291145;19;20571;-79
2024/03/05 02:09:32;;;;;;;24.63;13.77;;;6.60;99.90;;;;;;7289616;19;20201;-79
2024/03/05 02:11:58;;;;;;;23.27;13.50;;;6.70;99.90;;;;;;7288641;19;20196;-79
2024/03/05 02:14:28;;;;;;;22.10;13.40;;;6.70;99.90;;;;;;7289299;19;20250;-79
2024/03/05 02:16:59;;;;;;;24.50;14.13;;;6.80;99.90;;;;;;7287874;19;20201;-79
2024/03/05 02:19:24;;;;;;;27.67;14.10;;;6.90;99.90;;;;;;7287955;19;20756;-79
2024/03/05 02:22:03;;;;;;;22.33;13.30;;;6.80;99.90;;;;;;7288102;19;20222;-79
2024/03/05 02:24:29;;;;;;;26.90;13.40;;;6.80;99.90;;;;;;7287171;19;20745;-79
2024/03/05 02:26:55;;;;;;;24.53;13.63;;;6.90;99.90;;;;;;7289206;19;20196;-78
2024/03/05 02:29:23;;;;;;;23.90;13.20;;;7.00;99.90;;;;;;7287841;19;20695;-79
2024/03/05 02:31:50;;;;;;;25.77;12.80;;;7.00;99.90;;;;;;7287660;19;20230;-79
2024/03/05 02:34:16;;;;;;;21.30;12.73;;;7.00;99.90;;;;;;7288149;19;20193;-79
2024/03/05 02:36:43;;;;;;;21.43;13.20;;;7.10;99.90;;;;;;7287156;19;20694;-79
2024/03/05 02:39:09;;;;;;;23.23;13.97;;;7.10;99.90;;;;;;7288696;19;20917;-79
2024/03/05 02:41:36;;;;;;;22.63;14.07;;;7.00;99.90;;;;;;7290152;19;20186;-79
2024/03/05 02:44:02;;;;;;;22.30;12.60;;;7.00;99.90;;;;;;7309805;19;20190;-79
2024/03/05 02:46:28;;;;;;;26.43;14.07;;;7.00;99.90;;;;;;7287424;19;20261;-79
2024/03/05 02:48:54;;;;;;;21.20;12.80;;;7.00;99.90;;;;;;7287432;19;20227;-80
2024/03/05 02:51:20;;;;;;;22.80;12.20;;;7.00;99.90;;;;;;7287729;19;20648;-79
2024/03/05 02:53:46;;;;;;;20.03;11.47;;;7.00;99.90;;;;;;7287337;19;20180;-79
2024/03/05 02:56:12;;;;;;;21.47;12.77;;;7.10;99.90;;;;;;7287059;19;20224;-79
2024/03/05 02:58:39;;;;;;;23.87;13.20;;;7.30;99.90;;;;;;7286460;19;21011;-79
2024/03/05 03:01:07;;;;;;;23.00;13.37;;;7.30;99.90;;;;;;7296551;19;20189;-79
2024/03/05 03:03:37;;;;;;;22.77;13.40;;;7.30;99.90;;;;;;7313398;19;20194;-79
2024/03/05 03:06:03;;;;;;;22.27;12.27;;;7.30;99.90;;;;;;7287222;19;20279;-79
2024/03/05 03:08:29;;;;;;;21.13;13.07;;;7.20;99.90;;;;;;7284648;19;20198;-79
2024/03/05 03:10:55;;;;;;;20.97;12.00;;;7.30;99.90;;;;;;7286636;19;20183;-79
2024/03/05 03:13:23;;;;;;;21.00;10.87;;;7.40;99.90;;;;;;7285420;19;20195;-79
2024/03/05 03:15:49;;;;;;;20.83;12.10;;;7.40;99.90;;;;;;7285384;19;20210;-79
2024/03/05 03:18:15;;;;;;;20.93;11.43;;;7.50;99.90;;;;;;7285998;19;20661;-79
2024/03/05 03:20:41;;;;;;;20.43;11.23;;;7.60;99.90;;;;;;7285073;19;20195;-79
2024/03/05 03:23:07;;;;;;;20.73;12.77;;;7.60;99.90;;;;;;7284587;19;20197;-79
2024/03/05 03:25:33;;;;;;;23.43;13.27;;;7.60;99.90;;;;;;7307244;19;20204;-79
2024/03/05 03:27:58;;;;;;;22.37;12.73;;;7.60;99.90;;;;;;7286085;19;20230;-79
2024/03/05 03:30:26;;;;;;;20.20;11.30;;;7.70;99.90;;;;;;7285427;19;20533;-79
2024/03/05 03:32:52;;;;;;;18.07;10.13;;;7.70;99.90;;;;;;7285863;19;20183;-79
2024/03/05 03:35:21;;;;;;;20.23;10.53;;;7.70;99.90;;;;;;7284830;19;20213;-79
2024/03/05 03:37:48;;;;;;;17.23;9.07;;;7.80;99.90;;;;;;7286962;19;20186;-79
2024/03/05 03:40:20;;;;;;;18.47;10.07;;;7.80;99.90;;;;;;7286349;19;20225;-79
2024/03/05 03:42:47;;;;;;;18.17;9.80;;;7.90;99.90;;;;;;7283690;19;20186;-79
2024/03/05 03:45:13;;;;;;;20.87;11.67;;;7.90;99.90;;;;;;7286502;19;20519;-79
2024/03/05 03:47:39;;;;;;;20.43;12.07;;;7.90;99.90;;;;;;7285835;19;20195;-79
2024/03/05 03:50:07;;;;;;;21.87;12.63;;;7.90;99.90;;;;;;7288007;19;20198;-79
2024/03/05 03:52:33;;;;;;;22.30;12.90;;;7.70;99.90;;;;;;7307651;19;20282;-79
2024/03/05 03:54:59;;;;;;;21.93;13.13;;;7.70;99.90;;;;;;7286790;19;20197;-79
2024/03/05 03:57:27;;;;;;;24.73;12.93;;;7.70;99.90;;;;;;7284816;19;20183;-79
2024/03/05 03:59:56;;;;;;;22.27;12.83;;;7.70;99.90;;;;;;7285578;19;20198;-80
2024/03/05 04:02:22;;;;;;;25.13;13.50;;;7.70;99.90;;;;;;7284535;19;20233;-79
2024/03/05 04:04:48;;;;;;;25.83;13.47;;;7.80;99.90;;;;;;7285791;19;20642;-79
2024/03/05 04:07:18;;;;;;;20.10;12.57;;;7.80;99.90;;;;;;7284751;19;20292;-79
2024/03/05 04:09:44;;;;;;;22.53;13.67;;;7.90;99.90;;;;;;7282614;19;20203;-79
2024/03/05 04:12:12;;;;;;;22.60;12.83;;;7.80;99.90;;;;;;7284231;19;20193;-79
2024/03/05 04:14:38;;;;;;;24.87;14.43;;;7.80;99.90;;;;;;7284927;19;20210;-79
2024/03/05 04:17:04;;;;;;;22.27;12.80;;;7.80;99.90;;;;;;7300469;19;20653;-78
2024/03/05 04:19:30;;;;;;;27.23;13.97;;;7.90;99.90;;;;;;7303753;19;20191;-79
2024/03/05 04:21:56;;;;;;;24.87;13.10;;;7.90;99.90;;;;;;7282742;19;20201;-80
2024/03/05 04:24:22;;;;;;;24.23;13.77;;;8.00;99.90;;;;;;7283270;19;20272;-79
2024/03/05 04:26:50;;;;;;;21.80;11.47;;;8.10;99.90;;;;;;7282580;19;20556;-80
2024/03/05 04:29:19;;;;;;;19.50;10.77;;;8.20;99.90;;;;;;7281592;19;20222;-79
2024/03/05 04:32:09;;;;;;;20.73;9.67;;;8.20;99.90;;;;;;7284618;19;20193;-79
2024/03/05 04:34:43;;;;;;;20.27;9.33;;;8.20;99.90;;;;;;7282167;19;20580;-78
2024/03/05 04:37:10;;;;;;;19.83;9.50;;;8.10;99.90;;;;;;7284962;19;20220;-79
2024/03/05 04:39:43;;;;;;;20.13;8.77;;;8.10;99.90;;;;;;7283718;19;20173;-79
2024/03/05 04:42:09;;;;;;;21.37;8.83;;;8.10;99.90;;;;;;7283270;19;20197;-80
2024/03/05 04:44:35;;;;;;;18.70;8.43;;;8.00;99.90;;;;;;7292049;19;20186;-79
2024/03/05 04:47:03;;;;;;;19.10;8.63;;;8.00;99.90;;;;;;7306129;19;20180;-79
2024/03/05 04:49:29;;;;;;;15.10;7.60;;;8.10;99.90;;;;;;7283086;19;20288;-79
2024/03/05 04:51:55;;;;;;;17.23;7.37;;;8.10;99.90;;;;;;7284322;19;20610;-79
2024/03/05 04:54:21;;;;;;;14.97;6.90;;;8.30;99.90;;;;;;7282938;19;20257;-79
2024/03/05 04:56:47;;;;;;;14.73;7.30;;;8.40;99.90;;;;;;7281408;19;20188;-80
2024/03/05 04:59:13;;;;;;;13.80;6.53;;;8.30;99.90;;;;;;7283764;19;20190;-79
2024/03/05 05:01:39;;;;;;;13.13;6.27;;;8.40;99.90;;;;;;7282759;19;20182;-79
2024/03/05 05:04:05;;;;;;;11.53;6.40;;;8.40;99.90;;;;;;7288556;19;20275;-79
2024/03/05 05:06:32;;;;;;;13.63;6.63;;;8.40;99.90;;;;;;7305837;19;20771;-79
2024/03/05 05:08:58;;;;;;;15.67;6.60;;;8.40;99.90;;;;;;7281790;19;20190;-79
2024/03/05 05:11:24;;;;;;;11.47;5.83;;;8.40;99.90;;;;;;7283408;19;20211;-79
2024/03/05 05:13:50;;;;;;;13.97;6.00;;;8.50;99.90;;;;;;7282506;19;20186;-80
2024/03/05 05:16:16;;;;;;;13.23;6.80;;;8.60;99.90;;;;;;7281515;19;20210;-81
2024/03/05 05:18:41;;;;;;;14.70;6.80;;;8.60;99.90;;;;;;7284217;19;20192;-80
2024/03/05 05:21:07;;;;;;;15.47;6.03;;;8.50;99.90;;;;;;7283463;19;20186;-79
2024/03/05 05:23:34;;;;;;;12.70;6.53;;;8.60;99.90;;;;;;7304584;19;20190;-81
2024/03/05 05:25:59;;;;;;;13.80;6.57;;;8.60;99.90;;;;;;7283379;19;20179;-79
2024/03/05 05:28:25;;;;;;;13.73;6.50;;;8.70;99.90;;;;;;7281997;19;20189;-80
2024/03/05 05:30:51;;;;;;;12.10;5.90;;;8.50;99.90;;;;;;7288086;19;20588;-79
2024/03/05 05:33:17;;;;;;;13.70;5.83;;;8.30;99.90;;;;;;7286151;19;20529;-79
2024/03/05 05:35:43;;;;;;;13.30;6.33;;;8.20;99.90;;;;;;7288776;19;20544;-80
2024/03/05 05:38:10;;;;;;;12.30;6.10;;;8.20;99.90;;;;;;7287458;19;20183;-81
2024/03/05 05:40:36;;;;;;;17.60;5.63;;;8.20;99.90;;;;;;7287779;19;20719;-79
2024/03/05 05:43:02;;;;;;;10.37;5.23;;;8.10;99.90;;;;;;7310023;19;20182;-79
2024/03/05 05:45:28;;;;;;;13.20;5.40;;;8.10;99.90;;;;;;7288423;19;20713;-80
2024/03/05 05:47:56;;;;;;;11.93;5.63;;;8.10;99.90;;;;;;7288704;19;25832;-80
2024/03/05 05:50:25;;;;;;;12.40;5.40;;;8.20;99.90;;;;;;7287772;19;20187;-80
2024/03/05 05:52:53;;;;;;;12.93;5.90;;;8.30;99.90;;;;;;7287549;19;20240;-79
2024/03/05 05:55:20;;;;;;;12.63;5.63;;;8.40;99.90;;;;;;7287114;19;20203;-78
2024/03/05 05:57:49;;;;;;;12.60;5.63;;;8.50;99.90;;;;;;7287921;19;20204;-79
2024/03/05 06:00:24;;;;;;;11.40;5.27;;;8.50;99.90;;;;;;7287566;19;20195;-79
2024/03/05 06:02:53;;;;;;;10.00;4.90;;;8.40;99.90;;;;;;7288059;19;20192;-79
2024/03/05 06:05:27;;;;;;;18.20;6.93;;;8.20;99.90;;;;;;7288678;19;20689;-80
2024/03/05 06:07:56;;;;;;;11.20;5.33;;;8.20;99.90;;;;;;7287088;19;20204;-80
2024/03/05 06:10:22;;;;;;;20.43;7.43;;;8.00;99.90;;;;;;7288230;19;20195;-80
2024/03/05 06:12:48;;;;;;;12.70;5.67;;;8.00;99.90;;;;;;7288656;19;20206;-80
2024/03/05 06:15:14;;;;;;;20.63;8.10;;;8.10;99.90;;;;;;7287851;19;20187;-79
2024/03/05 06:17:40;;;;;;;16.43;5.80;;;8.20;99.90;;;;;;7288055;19;20221;-80
2024/03/05 06:20:12;;;;;;;16.37;6.30;;;8.20;99.90;;;;;;7288968;19;20255;-82
2024/03/05 06:22:39;;;;;;;13.77;5.50;;;8.10;99.90;;;;;;7286524;19;21050;-80
2024/03/05 06:25:09;;;;;;;14.67;6.23;;;8.10;99.90;;;;;;7298064;19;20191;-80
2024/03/05 06:27:39;;;;;;;17.43;6.20;;;8.10;99.90;;;;;;7297795;19;20199;-80
2024/03/05 06:30:15;;;;;;;14.47;7.17;;;8.20;99.90;;;;;;7304155;19;20178;-79
2024/03/05 06:32:48;;;;;;;14.13;6.00;;;8.30;99.90;;;;;;7287861;19;20555;-80
2024/03/05 06:35:17;;;;;;;12.97;6.13;;;8.40;99.90;;;;;;7287148;19;20241;-80
2024/03/05 06:37:46;;;;;;;14.67;5.73;;;8.30;99.90;;;;;;7287054;19;20274;-81
2024/03/05 06:40:13;;;;;;;11.53;6.00;;;8.20;99.90;;;;;;7286293;19;20190;-79
2024/03/05 06:42:43;;;;;;;12.43;5.80;;;8.10;99.90;;;;;;7286882;19;20197;-78
2024/03/05 06:45:14;;;;;;;13.67;5.67;;;8.10;99.90;;;;;;7287957;19;20654;-78
2024/03/05 06:47:54;;;;;;;10.73;5.50;;;8.10;99.90;;;;;;7286264;19;20716;-78
2024/03/05 06:50:23;;;;;;;16.50;5.63;;;8.10;99.90;;;;;;7286629;19;20248;-80
2024/03/05 06:58:22;;;;;;;14.00;5.17;;;8.20;99.90;;;;;;7288255;19;20262;-80
2024/03/05 07:00:49;;;;;;;10.97;5.37;;;8.20;99.90;;;;;;7283427;19;20278;-81
2024/03/05 07:03:15;;;;;;;11.07;5.43;;;8.20;99.90;;;;;;7285210;19;20206;-81
2024/03/05 07:05:42;;;;;;;16.20;6.40;;;8.20;99.90;;;;;;7285693;19;20210;-80
2024/03/05 07:08:08;;;;;;;12.17;5.37;;;8.20;99.90;;;;;;7285275;19;20191;-80
2024/03/05 07:10:38;;;;;;;13.23;5.93;;;8.20;99.90;;;;;;7307563;19;20190;-80
2024/03/05 07:13:04;;;;;;;12.53;5.93;;;8.10;99.90;;;;;;7288527;19;20192;-80
2024/03/05 07:15:30;;;;;;;13.70;5.80;;;8.20;99.90;;;;;;7286701;19;20662;-79
2024/03/05 07:17:56;;;;;;;12.13;5.97;;;8.20;99.90;;;;;;7288647;19;20203;-79
2024/03/05 07:20:24;;;;;;;13.77;6.10;;;8.40;99.90;;;;;;7287302;19;20259;-79
2024/03/05 07:22:52;;;;;;;15.63;6.37;;;8.30;99.90;;;;;;7285934;19;20212;-81
2024/03/05 07:25:18;;;;;;;11.90;5.93;;;8.30;99.90;;;;;;7287309;19;20198;-80
2024/03/05 07:27:46;;;;;;;14.43;6.23;;;8.30;99.90;;;;;;7285676;19;20213;-80
2024/03/05 07:30:16;;;;;;;12.80;5.43;;;8.30;99.90;;;;;;7284048;19;21284;-79
2024/03/05 07:32:45;;;;;;;13.87;6.17;;;8.30;99.90;;;;;;7287368;19;20193;-79
2024/03/05 07:35:11;;;;;;;15.40;6.33;;;8.40;99.90;;;;;;7286572;19;20254;-79
2024/03/05 07:37:38;;;;;;;13.27;6.00;;;8.40;99.90;;;;;;7286436;19;20204;-79
2024/03/05 07:40:11;;;;;;;14.47;5.77;;;8.40;99.90;;;;;;7308862;19;20266;-79
2024/03/05 07:42:47;;;;;;;11.77;5.97;;;8.40;99.90;;;;;;7263231;19;20264;-79
2024/03/05 07:45:16;;;;;;;15.90;6.20;;;8.40;99.90;;;;;;7288008;19;20210;-79
2024/03/05 07:47:45;;;;;;;12.97;6.43;;;8.60;99.90;;;;;;7285486;19;20663;-79
2024/03/05 07:50:12;;;;;;;12.50;6.03;;;8.50;99.90;;;;;;7284984;19;20258;-79
2024/03/05 07:52:39;;;;;;;15.00;5.80;;;8.50;99.90;;;;;;7287633;19;20620;-80
2024/03/05 07:55:09;;;;;;;12.63;5.47;;;8.60;99.90;;;;;;7301832;19;20185;-79
2024/03/05 07:57:37;;;;;;;14.40;6.07;;;8.70;99.90;;;;;;7306766;19;20201;-80
2024/03/05 08:00:19;;;;;;;15.27;6.70;;;8.80;99.90;;;;;;7284690;19;20577;-80
2024/03/05 08:02:46;;;;;;;12.20;5.80;;;9.00;99.90;;;;;;7180169;19;2005029;-81
2024/03/05 08:05:17;;;;;;;12.50;5.70;;;9.20;99.90;;;;;;7284864;19;20210;-80
2024/03/05 08:07:45;;;;;;;13.43;6.10;;;9.20;99.90;;;;;;7278713;19;20947;-80
2024/03/05 08:10:12;;;;;;;12.47;5.33;;;9.30;99.90;;;;;;7278043;19;20307;-80
2024/03/05 08:12:43;;;;;;;13.70;5.77;;;9.40;99.90;;;;;;7282240;19;20184;-80
2024/03/05 08:15:12;;;;;;;14.10;5.90;;;9.30;99.90;;;;;;7278606;19;20319;-80
2024/03/05 08:17:40;;;;;;;14.87;5.70;;;9.50;99.90;;;;;;7284402;19;20271;-80
2024/03/05 08:20:07;;;;;;;13.97;5.83;;;9.60;99.90;;;;;;7293752;19;20184;-80
2024/03/05 08:22:36;;;;;;;9.73;4.97;;;9.80;99.90;;;;;;7307387;19;20184;-80
2024/03/05 08:25:18;;;;;;;12.93;5.80;;;9.70;99.90;;;;;;7282992;19;20194;-80
2024/03/05 08:27:51;;;;;;;13.07;5.57;;;9.90;99.90;;;;;;7179081;19;2006602;-80
2024/03/05 08:30:19;;;;;;;11.87;5.10;;;10.10;99.90;;;;;;7283650;19;20191;-81
2024/03/05 08:32:46;;;;;;;10.30;4.90;;;10.10;99.90;;;;;;7283291;19;20180;-80
2024/03/05 08:35:12;;;;;;;12.70;4.93;;;9.80;99.90;;;;;;7280368;19;20193;-80
2024/03/05 08:37:40;;;;;;;16.03;5.37;;;9.80;99.90;;;;;;7279161;19;20192;-80
2024/03/05 08:40:13;;;;;;;13.53;5.40;;;9.80;99.90;;;;;;7285192;19;20200;-80
2024/03/05 08:42:51;;;;;;;11.97;5.13;;;9.80;99.90;;;;;;7283573;19;20195;-80
2024/03/05 08:45:22;;;;;;;10.27;4.60;;;9.80;99.90;;;;;;7282319;19;20559;-80
2024/03/05 08:47:53;;;;;;;11.90;4.70;;;9.60;99.90;;;;;;7281860;19;20190;-80
2024/03/05 08:50:19;;;;;;;12.30;4.33;;;9.30;99.90;;;;;;7280195;19;20895;-80
2024/03/05 08:52:46;;;;;;;12.33;4.40;;;9.30;99.90;;;;;;7283804;19;20562;-80
2024/03/05 08:55:14;;;;;;;8.43;3.80;;;9.10;99.90;;;;;;7281999;19;20189;-80
2024/03/05 08:57:40;;;;;;;8.37;3.73;;;9.10;99.90;;;;;;7281843;19;20184;-80
2024/03/05 09:00:07;;;;;;;10.50;3.90;;;9.10;99.90;;;;;;7289999;19;20225;-80
2024/03/05 09:02:34;;;;;;;10.70;4.13;;;9.10;99.90;;;;;;7306923;19;20206;-80
2024/03/05 09:05:02;;;;;;;12.07;4.40;;;9.10;99.90;;;;;;7283419;19;20613;-81
2024/03/05 09:07:29;;;;;;;8.37;3.37;;;9.10;99.90;;;;;;7283120;19;20209;-80
2024/03/05 09:09:57;;;;;;;9.40;3.70;;;8.90;99.90;;;;;;7282739;19;20222;-82
2024/03/05 09:12:24;;;;;;;7.80;4.03;;;8.80;99.90;;;;;;7281136;19;20191;-81
2024/03/05 09:14:50;;;;;;;11.33;4.00;;;8.80;99.90;;;;;;7283770;19;20191;-80
2024/03/05 09:17:16;;;;;;;9.03;4.00;;;8.80;99.90;;;;;;7281715;19;20190;-80
2024/03/05 09:19:44;;;;;;;12.37;4.10;;;8.80;99.90;;;;;;7274877;19;20673;-78
2024/03/05 09:22:10;;;;;;;10.57;4.20;;;9.00;99.90;;;;;;7282423;19;20186;-77
2024/03/05 09:24:36;;;;;;;13.40;4.37;;;9.20;99.90;;;;;;7291638;19;20182;-77
2024/03/05 09:27:03;;;;;;;10.60;4.27;;;9.30;99.90;;;;;;7301868;19;20317;-76
2024/03/05 09:29:29;;;;;;;10.23;4.00;;;9.40;99.90;;;;;;7282527;19;20189;-77
2024/03/05 09:31:55;;;;;;;8.93;4.17;;;9.20;99.90;;;;;;7280284;19;20258;-77
2024/03/05 09:34:22;;;;;;;10.13;4.03;;;9.10;99.90;;;;;;7281411;19;20195;-77
2024/03/05 09:36:49;;;;;;;10.77;4.10;;;9.20;99.90;;;;;;7280554;19;20190;-77
2024/03/05 09:39:15;;;;;;;9.47;3.67;;;9.40;99.90;;;;;;7280806;19;20324;-77
2024/03/05 09:41:44;;;;;;;10.63;3.63;;;9.30;99.90;;;;;;7280842;19;20183;-76
2024/03/05 09:44:11;;;;;;;8.87;3.90;;;9.20;99.90;;;;;;7277331;19;20183;-76
2024/03/05 09:46:48;;;;;;;9.83;3.40;;;9.30;99.90;;;;;;7282230;19;20195;-76
2024/03/05 09:49:18;;;;;;;10.60;3.63;;;9.30;99.90;;;;;;7279577;19;20719;-77
2024/03/05 09:51:45;;;;;;;10.07;3.60;;;9.50;99.90;;;;;;7278745;19;20201;-76
2024/03/05 09:54:12;;;;;;;8.37;3.40;;;9.50;99.90;;;;;;7277487;19;20181;-76
2024/03/05 09:56:45;;;;;;;10.37;4.50;;;9.60;99.90;;;;;;7277683;19;20276;-76
2024/03/05 09:59:14;;;;;;;7.43;3.40;;;9.70;99.90;;;;;;7276842;19;20314;-76
2024/03/05 10:01:47;;;;;;;8.53;4.40;;;9.70;99.90;;;;;;7278837;19;20181;-77
2024/03/05 10:04:17;;;;;;;7.63;4.27;;;9.70;99.90;;;;;;7280681;19;20176;-77
2024/03/05 10:06:46;;;;;;;9.30;3.40;;;9.50;99.90;;;;;;7280362;19;20186;-76
2024/03/05 10:09:13;;;;;;;8.33;3.23;;;9.30;99.90;;;;;;7280419;19;20526;-76
2024/03/05 10:11:40;;;;;;;9.43;3.30;;;9.10;99.90;;;;;;7278249;19;20210;-78
2024/03/05 10:14:10;;;;;;;9.27;3.70;;;9.10;99.90;;;;;;7292947;19;20604;-76
2024/03/05 10:16:37;;;;;;;9.47;3.57;;;9.20;99.90;;;;;;7289363;19;20190;-75
2024/03/05 10:19:14;;;;;;;9.47;3.90;;;9.30;99.90;;;;;;7305571;19;20191;-77
2024/03/05 10:21:44;;;;;;;6.43;3.43;;;9.40;99.90;;;;;;7185623;19;2004588;-77
2024/03/05 10:24:11;;;;;;;8.97;3.50;;;9.40;99.90;;;;;;7281315;19;20697;-76
2024/03/05 10:26:38;;;;;;;9.97;4.17;;;9.30;99.90;;;;;;7286959;19;20600;-77
2024/03/05 10:29:08;;;;;;;9.83;3.90;;;9.20;99.90;;;;;;7307164;19;20186;-77
2024/03/05 10:31:47;;;;;;;6.77;3.90;;;9.10;99.90;;;;;;7284212;19;20195;-77
2024/03/05 10:34:18;;;;;;;8.57;4.03;;;9.10;99.90;;;;;;7183856;19;2004584;-76
2024/03/05 10:36:45;;;;;;;11.03;4.33;;;9.20;99.90;;;;;;7284705;19;20191;-77
2024/03/05 10:39:12;;;;;;;8.90;3.93;;;9.40;99.90;;;;;;7284418;19;20195;-76
2024/03/05 10:41:40;;;;;;;8.87;4.00;;;9.60;99.90;;;;;;7285578;19;20654;-76
2024/03/05 10:44:07;;;;;;;8.50;4.30;;;9.80;99.90;;;;;;7300696;19;20189;-76
2024/03/05 10:46:36;;;;;;;8.00;3.90;;;10.00;99.90;;;;;;7302449;19;20188;-77
2024/03/05 10:49:05;;;;;;;9.93;3.57;;;10.20;99.90;;;;;;7284771;19;20189;-77
2024/03/05 10:51:38;;;;;;;9.77;3.60;;;10.20;99.90;;;;;;7284116;19;20241;-77
2024/03/05 10:54:06;;;;;;;8.30;3.57;;;10.50;99.90;;;;;;7286133;19;20499;-77
2024/03/05 10:56:36;;;;;;;7.70;3.50;;;10.80;99.90;;;;;;7286853;19;20212;-77
2024/03/05 11:01:43;;;;;;;6.87;2.93;;;11.30;99.90;;;;;;7183085;19;2006374;-78
2024/03/05 11:04:24;;;;;;;7.97;3.07;;;12.50;99.90;;;;;;7282681;19;20181;-77
2024/03/05 11:06:54;;;;;;;9.87;2.90;;;13.20;99.90;;;;;;7285952;19;20198;-78
2024/03/05 11:09:22;;;;;;;7.83;2.80;;;13.70;99.90;;;;;;7282570;19;20192;-77
2024/03/05 11:12:09;;;;;;;7.00;2.83;;;14.00;99.90;;;;;;7284878;19;20191;-78
2024/03/05 11:14:39;;;;;;;6.07;2.67;;;14.60;99.90;;;;;;7285487;19;20188;-78
2024/03/05 11:17:15;;;;;;;7.70;2.60;;;14.40;99.90;;;;;;7285825;19;20188;-79
2024/03/05 11:19:45;;;;;;;6.93;2.33;;;14.60;99.90;;;;;;7182138;19;2004639;-78
2024/03/05 11:22:26;;;;;;;5.53;2.00;;;14.30;99.90;;;;;;7286423;19;20187;-78
2024/03/05 11:25:00;;;;;;;4.90;2.20;;;14.40;99.90;;;;;;7283394;19;20346;-79
2024/03/05 11:27:31;;;;;;;6.93;2.17;;;14.60;99.90;;;;;;7280819;19;20196;-78
2024/03/05 11:30:11;;;;;;;5.30;2.30;;;14.70;99.90;;;;;;7282823;19;20205;-78
2024/03/05 11:32:41;;;;;;;9.07;2.83;;;14.40;99.90;;;;;;7260424;19;20348;-77
2024/03/05 11:35:11;;;;;;;6.83;2.47;;;13.50;99.90;;;;;;7288116;19;20195;-78
2024/03/05 11:37:54;;;;;;;8.50;2.57;;;13.30;99.90;;;;;;7294122;19;20202;-77
2024/03/05 11:40:32;;;;;;;10.07;2.80;;;13.30;99.90;;;;;;7286520;19;20195;-79
2024/03/05 11:42:58;;;;;;;7.07;2.30;;;13.40;99.90;;;;;;7284162;19;20200;-77
2024/03/05 11:45:49;;;;;;;5.73;1.80;;;13.10;99.90;;;;;;7284327;19;20211;-78
2024/03/05 11:48:16;;;;;;;8.43;2.10;;;12.90;99.90;;;;;;7182267;19;2004553;-78
2024/03/05 11:50:42;;;;;;;7.53;2.10;;;12.90;99.90;;;;;;7283980;19;20665;-79
2024/03/05 11:53:09;;;;;;;7.43;2.80;;;13.00;99.90;;;;;;7284267;19;20557;-78
2024/03/05 11:55:36;;;;;;;7.53;2.47;;;13.20;99.90;;;;;;7303456;19;20196;-77
2024/03/05 11:58:02;;;;;;;8.60;2.10;;;13.20;99.90;;;;;;7299039;19;20766;-78
2024/03/05 12:00:29;;;;;;;5.67;2.23;;;13.30;99.90;;;;;;7285405;19;21010;-79
2024/03/05 12:02:59;;;;;;;7.87;2.40;;;13.50;99.90;;;;;;7281552;19;22537;-79
2024/03/05 12:05:25;;;;;;;6.30;2.10;;;13.90;99.90;;;;;;7285221;19;20705;-79
2024/03/05 12:08:07;;;;;;;7.33;2.10;;;14.30;99.90;;;;;;7284567;19;20195;-79
2024/03/05 12:10:39;;;;;;;6.77;1.53;;;14.60;99.90;;;;;;7286108;19;20233;-79
2024/03/05 12:13:05;;;;;;;5.40;1.50;;;14.70;99.90;;;;;;7286593;19;20188;-79
2024/03/05 12:15:34;;;;;;;7.60;1.70;;;14.80;99.90;;;;;;7284896;19;20282;-79
2024/03/05 12:18:10;;;;;;;8.60;1.70;;;15.00;99.90;;;;;;7284469;19;20196;-79
2024/03/05 12:20:42;;;;;;;8.17;2.00;;;15.00;99.90;;;;;;7282515;19;20200;-78
2024/03/05 12:23:08;;;;;;;5.87;1.47;;;15.00;99.90;;;;;;7283171;19;20205;-78
2024/03/05 12:25:34;;;;;;;6.87;1.30;;;14.80;99.90;;;;;;7306296;19;20302;-79
2024/03/05 12:28:00;;;;;;;5.30;1.30;;;14.60;99.90;;;;;;7284156;19;20408;-79
2024/03/05 12:30:32;;;;;;;4.47;1.10;;;14.50;99.90;;;;;;7282826;19;20270;-79
2024/03/05 12:32:58;;;;;;;4.47;1.17;;;14.30;99.90;;;;;;7284132;19;20196;-78
2024/03/05 12:35:25;;;;;;;7.17;1.20;;;14.20;99.90;;;;;;7281960;19;20250;-79
2024/03/05 12:37:52;;;;;;;9.83;1.70;;;14.30;99.90;;;;;;7283017;19;20300;-78
2024/03/05 12:40:22;;;;;;;6.60;1.47;;;14.30;99.90;;;;;;7282288;19;20208;-78
2024/03/05 12:42:49;;;;;;;4.80;1.33;;;14.20;99.90;;;;;;7281641;19;20268;-78
2024/03/05 12:45:21;;;;;;;9.90;1.60;;;14.10;99.90;;;;;;7282001;19;20633;-77
2024/03/05 12:48:00;;;;;;;4.10;1.30;;;14.00;99.90;;;;;;7283248;19;20206;-78
2024/03/05 12:50:26;;;;;;;6.47;1.50;;;14.10;99.90;;;;;;7281182;19;21015;-79
2024/03/05 12:53:04;;;;;;;6.60;1.63;;;14.10;99.90;;;;;;7282378;19;20221;-79
2024/03/05 12:55:30;;;;;;;5.20;1.67;;;14.00;99.90;;;;;;7282736;19;20275;-78
2024/03/05 12:58:06;;;;;;;4.80;1.50;;;14.10;99.90;;;;;;7282358;19;20223;-79